Time;durP1;ratioP1;P1;durP2;ratioP2;P2;SDS_P1;SDS_P2;PMS_P1;PMS_P2;Temp;Humidity;BMP_temperature;BMP_pressure;BME280_temperature;BME280_humidity;BME280_pressure;Samples;Min_cycle;Max_cycle;Signal;HPM_P1;HPM_P2
2023/01/19 02:04:28;;;;;;;24.20;14.40;;;;;;;6.82;94.57;100701.13;105409;1267;125937;-89
2023/01/19 02:15:16;;;;;;;27.30;15.80;;;;;;;6.98;93.01;100720.95;105713;1269;73759;-89
2023/01/19 02:17:47;;;;;;;28.00;16.20;;;;;;;6.99;92.73;100718.65;105497;1264;62317;-89
2023/01/19 02:20:15;;;;;;;27.00;15.20;;;;;;;6.99;92.64;100726.29;108052;1264;59572;-89
2023/01/19 02:22:46;;;;;;;21.90;14.30;;;;;;;7.00;92.64;100733.71;107294;1264;72175;-90
2023/01/19 02:25:13;;;;;;;22.70;14.10;;;;;;;7.00;92.61;100740.85;106020;1263;63537;-88
2023/01/19 02:27:40;;;;;;;21.90;13.50;;;;;;;6.99;92.31;100745.91;106476;1264;71383;-87
2023/01/19 02:30:08;;;;;;;22.70;14.10;;;;;;;7.00;92.33;100749.90;106701;1263;61848;-89
2023/01/19 02:32:36;;;;;;;23.00;13.90;;;;;;;6.99;92.12;100752.36;106031;1264;60354;-91
2023/01/19 02:35:04;;;;;;;20.90;14.00;;;;;;;7.00;92.02;100754.06;106792;1264;73564;-90
2023/01/19 02:37:52;;;;;;;19.70;13.50;;;;;;;6.98;91.97;100744.25;108182;1263;63997;-87
2023/01/19 02:40:20;;;;;;;21.40;14.80;;;;;;;6.98;91.79;100742.52;108633;1263;72935;-87
2023/01/19 02:42:50;;;;;;;24.80;15.00;;;;;;;6.95;91.77;100746.11;108369;1263;60415;-88
2023/01/19 02:45:21;;;;;;;23.00;15.20;;;;;;;6.93;91.88;100746.52;106195;1264;60422;-91
2023/01/19 02:47:50;;;;;;;24.50;13.70;;;;;;;6.92;92.00;100745.89;105459;1270;73383;-92
2023/01/19 02:50:45;;;;;;;27.80;16.40;;;;;;;6.90;92.04;100743.01;105390;1269;64731;-92
2023/01/19 02:53:49;;;;;;;22.10;13.00;;;;;;;6.90;92.11;100743.20;105930;1267;74209;-88
2023/01/19 02:56:23;;;;;;;24.30;14.60;;;;;;;6.92;92.26;100746.41;107434;1268;61685;-89
2023/01/19 02:59:40;;;;;;;21.40;13.10;;;;;;;6.93;92.33;100744.97;105744;1263;61417;-88
2023/01/19 03:02:16;;;;;;;23.20;13.50;;;;;;;6.96;92.15;100753.51;107528;1268;71909;-91
2023/01/19 03:05:16;;;;;;;24.70;14.80;;;;;;;6.99;92.13;100755.85;105105;1267;64394;-91
2023/01/19 03:07:52;;;;;;;24.10;15.30;;;;;;;7.00;91.95;100756.14;106710;1271;73056;-89
2023/01/19 03:10:35;;;;;;;23.00;14.90;;;;;;;6.98;91.72;100756.40;108561;1266;60389;-88
2023/01/19 03:13:30;;;;;;;27.20;16.00;;;;;;;6.97;91.81;100754.89;108326;1263;60166;-88
2023/01/19 03:16:26;;;;;;;25.10;15.10;;;;;;;6.95;91.61;100753.56;105614;1267;72255;-91
2023/01/19 03:19:05;;;;;;;22.70;13.60;;;;;;;6.93;91.64;100758.52;105909;1263;63564;-88
2023/01/19 03:21:33;;;;;;;22.00;14.90;;;;;;;6.91;91.71;100754.23;105637;1259;73011;-88
2023/01/19 03:24:01;;;;;;;23.30;14.70;;;;;;;6.90;91.81;100759.52;105577;1265;63267;-90
2023/01/19 03:26:31;;;;;;;25.20;13.90;;;;;;;6.91;91.91;100761.92;105572;1260;60199;-89
2023/01/19 03:28:58;;;;;;;24.90;15.00;;;;;;;6.90;91.57;100768.77;105512;1260;73040;-89
2023/01/19 03:31:26;;;;;;;21.90;15.70;;;;;;;6.87;91.72;100773.03;105555;1260;64293;-91
2023/01/19 03:34:01;;;;;;;23.70;14.80;;;;;;;6.86;91.76;100776.20;106180;1254;74146;-90
2023/01/19 03:36:51;;;;;;;26.00;13.70;;;;;;;6.85;91.77;100783.20;107928;1252;63019;-89
2023/01/19 03:39:21;;;;;;;22.10;13.50;;;;;;;6.82;92.03;100782.61;108560;1253;60470;-91
2023/01/19 03:41:51;;;;;;;25.80;15.00;;;;;;;6.81;92.26;100780.95;106347;1259;73000;-89
2023/01/19 03:44:19;;;;;;;21.30;14.10;;;;;;;6.81;92.08;100781.99;106269;1254;63877;-88
2023/01/19 03:46:46;;;;;;;23.30;14.50;;;;;;;6.81;92.02;100784.41;106825;1253;74070;-92
2023/01/19 03:49:14;;;;;;;23.30;14.40;;;;;;;6.79;91.98;100781.33;106793;1257;60172;-90
2023/01/19 03:51:41;;;;;;;23.10;14.90;;;;;;;6.79;91.95;100779.63;107152;1254;60798;-88
2023/01/19 03:54:09;;;;;;;23.20;15.60;;;;;;;6.75;91.91;100776.14;107036;1252;73794;-88
2023/01/19 03:56:36;;;;;;;23.90;15.30;;;;;;;6.75;91.88;100782.23;106738;1256;64955;-89
2023/01/19 03:59:07;;;;;;;24.30;14.30;;;;;;;6.73;92.01;100785.80;107972;1254;73562;-90
2023/01/19 04:01:34;;;;;;;21.20;15.10;;;;;;;6.69;92.18;100791.86;108780;1253;63017;-89
2023/01/19 04:04:03;;;;;;;27.40;18.40;;;;;;;6.67;92.09;100793.70;108208;1253;60326;-89
2023/01/19 04:06:30;;;;;;;26.10;15.30;;;;;;;6.66;92.42;100793.39;107574;1253;73064;-89
2023/01/19 04:08:58;;;;;;;26.50;15.80;;;;;;;6.66;92.48;100801.18;106975;1252;63886;-88
2023/01/19 04:11:25;;;;;;;37.70;18.30;;;;;;;6.68;92.41;100800.95;107210;1252;72114;-85
2023/01/19 04:13:52;;;;;;;27.10;16.20;;;;;;;6.69;92.49;100800.54;108223;1253;62513;-86
2023/01/19 04:16:20;;;;;;;26.70;15.20;;;;;;;6.70;92.39;100798.40;108139;1253;61282;-87
2023/01/19 04:18:48;;;;;;;27.60;16.10;;;;;;;6.71;92.34;100800.27;107572;1253;73328;-91
2023/01/19 04:21:15;;;;;;;21.20;13.90;;;;;;;6.71;92.35;100801.14;108319;1254;63871;-91
2023/01/19 04:23:44;;;;;;;24.50;14.40;;;;;;;6.72;92.45;100799.05;106450;1254;73644;-89
2023/01/19 04:26:12;;;;;;;24.40;13.40;;;;;;;6.73;92.30;100804.19;106606;1254;61933;-89
2023/01/19 04:28:38;;;;;;;21.60;13.40;;;;;;;6.74;92.12;100803.48;108261;1254;61902;-87
2023/01/19 04:31:06;;;;;;;17.90;12.60;;;;;;;6.75;92.32;100811.40;106555;1253;74069;-89
2023/01/19 04:33:34;;;;;;;23.60;12.90;;;;;;;6.77;92.22;100815.16;106500;1252;63584;-92
2023/01/19 04:36:02;;;;;;;21.20;13.30;;;;;;;6.79;92.08;100807.95;106742;1252;73585;-87
2023/01/19 04:38:31;;;;;;;31.30;14.20;;;;;;;6.80;91.96;100812.60;107726;1252;60453;-88
2023/01/19 04:40:58;;;;;;;25.30;15.10;;;;;;;6.80;91.93;100810.69;108239;1253;61276;-90
2023/01/19 04:43:26;;;;;;;26.40;14.00;;;;;;;6.79;91.53;100810.02;108077;1252;73906;-88
2023/01/19 04:45:53;;;;;;;25.20;14.90;;;;;;;6.77;91.43;100811.33;107168;1252;63623;-90
2023/01/19 04:48:20;;;;;;;20.30;13.20;;;;;;;6.75;91.52;100805.87;108178;1253;72571;-89
2023/01/19 04:50:51;;;;;;;19.00;13.40;;;;;;;6.73;91.52;100809.58;109123;1252;61809;-88
2023/01/19 04:53:18;;;;;;;25.20;14.60;;;;;;;6.72;91.47;100811.57;107726;1253;60158;-89
2023/01/19 04:55:45;;;;;;;21.20;12.90;;;;;;;6.71;91.64;100809.50;108023;1256;71760;-87
2023/01/19 04:58:15;;;;;;;26.70;15.20;;;;;;;6.66;91.50;100807.77;107801;1253;63366;-88
2023/01/19 05:00:42;;;;;;;21.50;13.90;;;;;;;6.69;91.48;100823.14;107632;1259;72492;-91
2023/01/19 05:03:10;;;;;;;28.10;15.30;;;;;;;6.67;91.47;100817.83;109749;1252;60907;-90
2023/01/19 05:05:39;;;;;;;31.10;14.80;;;;;;;6.65;91.55;100815.63;108491;1254;60421;-86
2023/01/19 05:08:07;;;;;;;20.40;14.10;;;;;;;6.64;91.42;100824.19;107680;1254;73338;-90
2023/01/19 05:10:36;;;;;;;24.70;14.20;;;;;;;6.62;91.53;100825.63;106881;1254;64360;-88
2023/01/19 05:13:04;;;;;;;22.00;14.80;;;;;;;6.61;91.50;100832.11;107168;1252;72547;-90
2023/01/19 05:15:33;;;;;;;27.30;13.90;;;;;;;6.60;91.56;100828.00;108838;1254;61894;-87
2023/01/19 05:18:01;;;;;;;19.80;13.70;;;;;;;6.60;91.47;100833.04;108186;1252;61285;-90
2023/01/19 05:20:28;;;;;;;22.20;13.30;;;;;;;6.59;91.47;100836.02;107864;1252;72330;-87
2023/01/19 05:23:00;;;;;;;26.10;16.00;;;;;;;6.58;91.29;100833.97;107195;1254;63885;-90
2023/01/19 05:25:28;;;;;;;23.00;14.50;;;;;;;6.57;91.31;100839.95;108229;1252;73677;-89
2023/01/19 05:27:55;;;;;;;22.40;13.60;;;;;;;6.56;91.33;100849.20;109217;1252;61839;-89
2023/01/19 05:30:22;;;;;;;22.60;13.80;;;;;;;6.55;91.38;100855.13;108044;1253;60868;-91
2023/01/19 05:32:50;;;;;;;22.30;13.00;;;;;;;6.55;91.34;100853.91;106913;1256;73974;-91
2023/01/19 05:35:19;;;;;;;22.20;12.90;;;;;;;6.54;91.35;100859.34;106599;1256;64256;-89
2023/01/19 05:37:58;;;;;;;23.80;13.70;;;;;;;6.53;91.25;100863.70;106741;1254;72465;-88
2023/01/19 05:40:25;;;;;;;21.90;12.40;;;;;;;6.53;91.29;100873.95;109141;1252;62731;-90
2023/01/19 05:42:59;;;;;;;17.00;12.90;;;;;;;6.51;91.19;100868.98;108536;1252;59717;-91
2023/01/19 05:45:37;;;;;;;22.00;12.40;;;;;;;6.55;91.31;100875.25;108977;1253;75126;-88
2023/01/19 05:48:08;;;;;;;18.10;12.30;;;;;;;6.57;91.15;100878.83;107509;1252;63718;-90
2023/01/19 05:50:37;;;;;;;19.40;11.90;;;;;;;6.60;90.98;100890.55;106798;1252;73985;-87
2023/01/19 05:53:06;;;;;;;20.70;12.30;;;;;;;6.61;90.87;100887.52;107432;1254;62310;-88
2023/01/19 05:55:34;;;;;;;21.40;13.20;;;;;;;6.63;90.83;100890.75;107774;1253;62141;-90
2023/01/19 05:58:01;;;;;;;21.50;12.70;;;;;;;6.65;90.64;100895.55;106696;1254;73115;-88
2023/01/19 06:00:29;;;;;;;18.30;11.40;;;;;;;6.67;90.61;100898.80;106651;1252;64858;-89
2023/01/19 06:02:56;;;;;;;20.30;12.10;;;;;;;6.68;90.33;100900.14;106661;1254;73313;-89
2023/01/19 06:05:24;;;;;;;24.10;14.10;;;;;;;6.68;90.23;100902.89;107113;1253;60847;-88
2023/01/19 06:07:51;;;;;;;27.30;17.20;;;;;;;6.71;90.24;100912.20;107680;1253;61139;-88
2023/01/19 06:10:19;;;;;;;32.70;22.20;;;;;;;6.73;90.15;100914.16;106852;1256;72685;-89
2023/01/19 06:12:47;;;;;;;24.90;14.50;;;;;;;6.76;90.03;100917.20;107071;1253;62843;-89
2023/01/19 06:15:15;;;;;;;21.80;12.60;;;;;;;6.80;90.07;100920.15;106413;1254;74043;-88
2023/01/19 06:17:43;;;;;;;21.40;10.70;;;;;;;6.87;89.98;100923.36;106664;1256;62971;-90
2023/01/19 06:20:12;;;;;;;17.90;10.80;;;;;;;6.95;89.68;100928.61;106549;1254;60520;-87
2023/01/19 06:22:41;;;;;;;17.00;10.90;;;;;;;7.04;89.41;100925.29;106437;1252;73695;-88
2023/01/19 06:25:10;;;;;;;21.00;10.70;;;;;;;7.11;89.01;100920.48;107016;1253;64233;-90
2023/01/19 06:27:52;;;;;;;18.20;10.00;;;;;;;7.19;88.75;100923.27;108675;1252;72602;-89
2023/01/19 06:30:19;;;;;;;19.10;12.20;;;;;;;7.28;88.46;100920.30;108731;1254;60422;-89
2023/01/19 06:32:47;;;;;;;20.00;11.90;;;;;;;7.34;87.95;100927.20;108754;1254;60670;-90
2023/01/19 06:35:27;;;;;;;17.70;11.90;;;;;;;7.40;87.51;100933.20;107474;1257;73528;-88
2023/01/19 06:37:58;;;;;;;20.70;11.50;;;;;;;7.42;87.20;100929.98;106922;1254;62833;-90
2023/01/19 06:40:31;;;;;;;18.00;10.30;;;;;;;7.48;87.06;100937.71;107603;1254;73117;-88
2023/01/19 06:42:58;;;;;;;22.10;11.30;;;;;;;7.54;86.74;100934.90;107442;1254;61805;-86
2023/01/19 06:45:27;;;;;;;17.30;10.20;;;;;;;7.60;86.56;100938.98;108396;1254;61299;-86
2023/01/19 06:48:15;;;;;;;19.00;10.40;;;;;;;7.66;86.28;100934.52;107880;1253;74919;-89
2023/01/19 06:50:54;;;;;;;16.20;11.10;;;;;;;7.76;86.13;100930.63;107965;1254;62677;-86
2023/01/19 06:53:22;;;;;;;18.00;10.40;;;;;;;7.84;85.77;100928.90;108411;1254;72636;-88
2023/01/19 06:55:52;;;;;;;17.00;9.90;;;;;;;7.94;85.25;100928.62;107657;1254;61786;-88
2023/01/19 06:58:20;;;;;;;16.00;9.50;;;;;;;8.03;84.93;100923.55;107885;1253;61125;-88
2023/01/19 07:00:50;;;;;;;14.60;9.00;;;;;;;8.11;84.64;100925.09;107578;1261;73821;-88
2023/01/19 10:24:04;;;;;;;17.00;10.50;;;;;;;10.72;73.37;100967.63;106189;1282;613621;-94
2023/01/19 10:30:41;;;;;;;21.90;11.50;;;;;;;11.25;71.59;100958.09;106597;1283;71378;-95
2023/01/19 10:40:49;;;;;;;12.40;8.70;;;;;;;11.65;70.58;100948.89;104366;1286;60649;-96
2023/01/19 10:49:57;;;;;;;13.10;8.40;;;;;;;12.20;69.74;100940.31;105074;1273;970643;-94
2023/01/19 10:53:02;;;;;;;14.90;8.30;;;;;;;12.30;69.27;100945.89;106539;1282;76659;-95
2023/01/19 11:25:47;;;;;;;15.40;7.80;;;;;;;12.65;66.17;100928.43;107494;1278;62990;-92
2023/01/19 11:37:09;;;;;;;12.60;7.30;;;;;;;12.72;65.04;100911.80;107081;1270;61909;31
2023/01/19 11:45:17;;;;;;;11.50;7.70;;;;;;;12.70;65.14;100904.82;107287;1278;62533;-94
2023/01/19 11:47:51;;;;;;;14.60;8.60;;;;;;;12.69;65.51;100900.80;106976;1278;74282;-91
2023/01/19 11:51:01;;;;;;;10.10;8.20;;;;;;;12.66;65.59;100895.56;107077;1278;61203;-93
2023/01/19 11:54:03;;;;;;;13.80;8.00;;;;;;;12.63;65.84;100901.38;107360;1278;62183;-92
2023/01/19 12:12:45;;;;;;;11.90;6.70;;;;;;;12.93;64.44;100909.41;85018;1280;974749;31
2023/01/19 12:15:41;;;;;;;13.40;7.60;;;;;;;13.02;63.86;100912.70;106275;1273;65568;-93
2023/01/19 12:25:55;;;;;;;13.30;8.40;;;;;;;13.34;62.90;100928.73;105800;1272;61354;-91
2023/01/19 14:00:32;;;;;;;16.40;9.20;;;;;;;11.14;69.42;100947.50;96093;1273;977318;31
2023/01/19 14:10:24;;;;;;;12.40;8.80;;;;;;;10.81;70.30;100948.26;107731;1272;73766;-89
2023/01/19 14:13:16;;;;;;;15.40;9.20;;;;;;;10.68;70.62;100943.21;106752;1285;67174;-89
2023/01/19 14:16:23;;;;;;;16.10;9.00;;;;;;;10.57;71.08;100947.65;106868;1285;73811;-91
2023/01/19 14:19:02;;;;;;;16.40;8.60;;;;;;;10.45;71.57;100954.31;106945;1285;62959;-92
2023/01/19 14:22:44;;;;;;;13.20;8.70;;;;;;;10.30;72.01;100953.65;107050;1272;59224;-88
2023/01/19 14:30:59;;;;;;;18.60;9.10;;;;;;;10.04;72.90;100948.37;107540;1273;62943;-89
2023/01/19 14:35:25;;;;;;;18.40;10.10;;;;;;;9.87;73.38;100943.68;107684;1276;74195;-93
2023/01/19 14:39:56;;;;;;;14.10;10.70;;;;;;;9.80;73.76;100947.38;107685;1276;61929;31
2023/01/19 15:21:36;;;;;;;18.40;11.30;;;;;;;9.08;76.77;100985.28;107684;1278;60121;-93
2023/01/19 15:24:39;;;;;;;14.90;10.00;;;;;;;9.01;76.92;100990.50;106877;1282;72489;-93
2023/01/19 15:27:14;;;;;;;21.20;12.10;;;;;;;8.97;77.23;100994.36;106378;1286;64823;-94
2023/01/19 15:29:53;;;;;;;9.70;8.60;;;;;;;8.94;77.31;100998.00;105993;1288;73882;-94
2023/01/19 15:32:31;;;;;;;17.80;11.20;;;;;;;8.92;77.48;100996.17;106442;1286;61339;-94
2023/01/19 15:35:50;;;;;;;17.30;11.10;;;;;;;8.92;77.52;101004.71;106998;1279;63248;-93
2023/01/19 15:39:20;;;;;;;16.30;11.70;;;;;;;8.90;77.70;101000.96;107768;1278;73746;-92
2023/01/19 15:46:16;;;;;;;15.90;11.00;;;;;;;8.84;77.82;101008.94;107621;1275;74721;-93
2023/01/19 15:57:48;;;;;;;18.20;12.00;;;;;;;8.62;79.05;101012.54;107566;1281;71860;-93
2023/01/19 16:04:29;;;;;;;17.40;12.80;;;;;;;8.57;79.40;101014.86;104954;1279;72078;31
2023/01/19 16:41:08;;;;;;;24.40;15.80;;;;;;;8.11;81.24;101038.80;107331;1271;60481;31
2023/01/19 17:18:18;;;;;;;19.70;14.00;;;;;;;7.54;81.87;101047.11;85383;1286;62481;31
2023/01/19 17:49:41;;;;;;;25.20;15.00;;;;;;;7.04;81.37;101038.63;106652;1272;73597;-88
2023/01/19 17:57:12;;;;;;;26.20;17.60;;;;;;;6.98;81.41;101040.09;101081;1273;58840;31
2023/01/19 18:01:47;;;;;;;25.40;15.60;;;;;;;6.95;81.38;101050.98;107299;1279;75105;-92
2023/01/19 18:06:16;;;;;;;25.50;15.10;;;;;;;6.94;81.23;101053.62;107135;1282;62659;-93
2023/01/19 18:09:55;;;;;;;27.10;15.60;;;;;;;6.92;81.13;101054.23;106464;1282;73412;-90
2023/01/19 18:13:04;;;;;;;24.00;15.00;;;;;;;6.91;81.04;101060.86;106954;1279;60447;-93
2023/01/19 18:25:22;;;;;;;23.70;16.70;;;;;;;6.72;81.34;101058.97;105653;1296;64882;-93
2023/01/19 18:32:27;;;;;;;25.50;15.70;;;;;;;6.63;81.56;101067.45;106503;1287;60842;-92
2023/01/19 18:35:30;;;;;;;23.20;16.50;;;;;;;6.59;81.72;101058.90;106373;1291;59850;-94
2023/01/19 18:45:21;;;;;;;24.60;15.40;;;;;;;6.55;81.53;101074.69;106689;1289;72250;-92
2023/01/19 18:48:05;;;;;;;26.00;17.70;;;;;;;6.54;81.64;101081.52;106348;1294;62288;-93
2023/01/19 18:53:14;;;;;;;25.90;17.70;;;;;;;6.54;81.66;101076.63;107471;1281;611708;-93
2023/01/19 19:06:57;;;;;;;22.50;16.40;;;;;;;6.50;80.95;101073.98;107728;1273;71428;-93
2023/01/19 19:09:36;;;;;;;29.10;18.30;;;;;;;6.49;80.91;101072.83;107754;1273;63834;-96
2023/01/19 19:12:29;;;;;;;27.50;16.40;;;;;;;6.47;80.87;101067.17;108403;1266;72432;-94
2023/01/19 19:16:05;;;;;;;27.70;16.20;;;;;;;6.41;80.74;101064.73;108627;1254;61793;-93
2023/01/19 19:23:21;;;;;;;25.80;15.00;;;;;;;6.34;80.84;101073.87;107475;1267;71050;-93
2023/01/19 19:27:13;;;;;;;22.60;15.00;;;;;;;6.33;80.67;101075.65;107594;1274;62557;-91
2023/01/19 19:50:31;;;;;;;24.50;17.50;;;;;;;6.11;80.37;101083.67;108093;1275;61049;-96
2023/01/19 19:55:21;;;;;;;28.90;18.00;;;;;;;6.09;80.16;101080.98;106779;1282;59158;-94
2023/01/19 20:10:06;;;;;;;28.70;18.60;;;;;;;5.99;79.69;101081.48;103428;1276;59911;-91
2023/01/19 20:14:50;;;;;;;26.00;15.40;;;;;;;5.92;79.79;101081.55;106152;1291;60110;-93
2023/01/19 20:19:29;;;;;;;31.60;18.10;;;;;;;5.93;79.89;101091.38;106032;1296;71916;-92
2023/01/19 20:46:48;;;;;;;31.50;19.10;;;;;;;5.83;79.95;101126.58;107704;1276;59598;-94
2023/01/19 20:50:11;;;;;;;31.60;16.70;;;;;;;5.81;80.08;101128.04;107314;1281;60293;-93
2023/01/19 20:53:25;;;;;;;36.40;20.20;;;;;;;5.79;80.23;101124.42;107517;1283;74442;-93
2023/01/19 21:06:42;;;;;;;27.40;16.50;;;;;;;5.80;80.73;101141.41;106549;1275;60399;-93
2023/01/19 21:09:26;;;;;;;27.60;16.90;;;;;;;5.81;80.78;101138.42;105961;1280;72503;-94
2023/01/19 21:12:13;;;;;;;30.40;20.00;;;;;;;5.83;80.76;101146.52;106552;1277;63165;-94
2023/01/19 21:14:46;;;;;;;27.90;16.80;;;;;;;5.85;80.80;101140.91;106633;1276;72560;-91
2023/01/19 21:17:17;;;;;;;30.20;17.70;;;;;;;5.86;80.75;101140.90;106217;1276;61342;-93
2023/01/19 21:19:47;;;;;;;26.60;17.40;;;;;;;5.86;80.96;101147.30;106723;1276;60841;-91
2023/01/19 21:22:26;;;;;;;32.80;19.10;;;;;;;5.87;80.85;101146.41;107183;1276;71202;-93
2023/01/19 21:24:57;;;;;;;30.00;18.10;;;;;;;5.87;80.85;101149.88;106943;1275;63873;-94
2023/01/19 21:28:07;;;;;;;28.60;16.40;;;;;;;5.86;80.84;101147.65;107433;1264;73100;-92
2023/01/19 21:30:54;;;;;;;29.50;19.40;;;;;;;5.83;80.93;101147.75;106375;1274;61277;-92
2023/01/19 21:33:24;;;;;;;26.80;18.40;;;;;;;5.81;81.14;101148.33;106258;1274;59817;-88
2023/01/19 21:36:02;;;;;;;30.20;18.30;;;;;;;5.77;81.33;101147.23;106880;1273;73059;-91
2023/01/19 21:38:41;;;;;;;26.10;16.90;;;;;;;5.76;81.55;101148.30;107160;1276;63859;-89
2023/01/19 21:41:23;;;;;;;32.90;18.70;;;;;;;5.76;81.50;101146.41;107237;1276;73681;-92
2023/01/19 21:43:53;;;;;;;27.60;17.10;;;;;;;5.75;81.40;101137.95;106189;1277;61690;-91
2023/01/19 21:46:27;;;;;;;27.80;17.60;;;;;;;5.74;81.63;101137.28;105829;1277;60316;-92
2023/01/19 21:49:02;;;;;;;29.00;17.90;;;;;;;5.73;81.87;101128.13;105787;1277;73127;-92
2023/01/19 21:51:36;;;;;;;28.70;17.70;;;;;;;5.73;81.87;101127.58;106186;1274;64114;31
2023/01/19 21:54:06;;;;;;;27.00;17.80;;;;;;;5.74;81.87;101135.34;104851;1280;72890;-92
2023/01/19 21:56:33;;;;;;;31.80;18.00;;;;;;;5.76;81.98;101136.36;104566;1280;62038;-92
2023/01/19 21:59:02;;;;;;;29.90;19.30;;;;;;;5.76;82.08;101136.36;104497;1280;60393;-91
2023/01/19 22:01:32;;;;;;;32.00;19.30;;;;;;;5.75;82.15;101138.98;105372;1279;72968;-92
2023/01/19 22:04:03;;;;;;;29.00;17.30;;;;;;;5.72;82.14;101139.25;105141;1280;65424;-91
2023/01/19 22:06:31;;;;;;;27.80;18.30;;;;;;;5.73;82.23;101143.88;104413;1279;73066;-92
2023/01/19 22:08:59;;;;;;;34.90;19.90;;;;;;;5.71;82.26;101142.21;104530;1283;61203;-91
2023/01/19 22:11:27;;;;;;;31.40;18.50;;;;;;;5.67;82.24;101144.77;104231;1279;61471;-92
2023/01/19 22:13:54;;;;;;;30.10;18.20;;;;;;;5.63;82.49;101139.53;104672;1281;72596;-89
2023/01/19 22:16:22;;;;;;;34.00;18.50;;;;;;;5.60;82.54;101139.09;104773;1284;64890;-94
2023/01/19 22:18:59;;;;;;;37.30;19.20;;;;;;;5.56;82.82;101137.63;105907;1280;72824;-90
2023/01/19 22:21:32;;;;;;;33.30;19.40;;;;;;;5.54;83.02;101141.02;105979;1279;61397;-92
2023/01/19 22:23:59;;;;;;;29.90;18.70;;;;;;;5.52;83.17;101142.45;104707;1280;61348;-92
2023/01/19 22:26:28;;;;;;;32.00;19.10;;;;;;;5.51;83.45;101137.27;105449;1279;74346;-90
2023/01/19 22:30:26;;;;;;;33.90;19.10;;;;;;;5.54;83.76;101138.42;103433;1292;616373;-95
2023/01/19 22:32:55;;;;;;;29.90;19.00;;;;;;;5.54;83.71;101143.95;105501;1266;59643;-92
2023/01/19 22:35:24;;;;;;;34.30;19.70;;;;;;;5.57;83.72;101145.94;106173;1271;60331;-92
2023/01/19 22:37:52;;;;;;;30.10;18.00;;;;;;;5.61;83.95;101149.46;106798;1266;72268;-92
2023/01/19 22:40:21;;;;;;;29.50;19.10;;;;;;;5.65;83.92;101150.06;106959;1254;63733;-93
2023/01/19 22:42:49;;;;;;;28.10;17.60;;;;;;;5.67;83.78;101155.53;107174;1252;785958;-93
2023/01/19 22:45:17;;;;;;;31.40;17.00;;;;;;;5.70;83.73;101163.06;108444;1252;61717;-91
2023/01/19 22:47:50;;;;;;;28.10;17.60;;;;;;;5.72;83.73;101163.86;108768;1252;60297;-87
2023/01/19 22:50:47;;;;;;;27.90;17.20;;;;;;;5.71;83.41;101159.02;109058;1257;74877;-92
2023/01/19 22:54:09;;;;;;;27.10;18.70;;;;;;;5.77;83.17;101171.02;109344;1257;63812;-92
2023/01/19 22:56:37;;;;;;;28.70;17.50;;;;;;;5.76;83.10;101175.55;109335;1257;72825;-91
2023/01/19 22:59:05;;;;;;;28.40;18.10;;;;;;;5.75;83.04;101178.52;109278;1257;61036;-92
2023/01/19 23:01:56;;;;;;;34.80;19.20;;;;;;;5.74;83.05;101178.39;109335;1256;60366;-92
2023/01/19 23:04:24;;;;;;;29.70;17.80;;;;;;;5.74;82.94;101180.12;108145;1259;73116;-90
2023/01/19 23:06:52;;;;;;;32.90;17.70;;;;;;;5.73;82.84;101177.89;108553;1258;63811;-92
2023/01/19 23:09:19;;;;;;;33.00;19.30;;;;;;;5.72;82.90;101181.38;109154;1259;72474;-93
2023/01/19 23:11:50;;;;;;;33.00;17.60;;;;;;;5.72;82.90;101178.63;109226;1259;62023;-93
2023/01/19 23:14:20;;;;;;;28.00;17.20;;;;;;;5.72;82.95;101176.02;107398;1259;59473;-92
2023/01/19 23:16:47;;;;;;;27.80;18.60;;;;;;;5.75;82.97;101181.14;107365;1259;72881;-91
2023/01/19 23:19:16;;;;;;;31.20;17.70;;;;;;;5.76;82.98;101182.66;107939;1259;64826;-89
2023/01/19 23:21:52;;;;;;;28.60;18.90;;;;;;;5.77;82.74;101177.77;108960;1258;71396;-89
2023/01/19 23:24:21;;;;;;;31.90;19.30;;;;;;;5.77;82.64;101181.39;108881;1259;59516;-89
2023/01/19 23:26:49;;;;;;;33.20;20.10;;;;;;;5.78;82.62;101180.52;106776;1262;60346;-94
2023/01/19 23:29:18;;;;;;;26.90;17.60;;;;;;;5.77;82.55;101184.37;105684;1267;74009;-94
2023/01/19 23:31:46;;;;;;;30.30;19.50;;;;;;;5.75;82.41;101183.58;105706;1262;64054;-93
2023/01/19 23:34:14;;;;;;;31.80;19.00;;;;;;;5.71;82.38;101185.05;105715;1261;72659;-93
2023/01/19 23:36:43;;;;;;;30.20;19.50;;;;;;;5.69;82.44;101190.14;105753;1262;60886;-93
2023/01/19 23:39:13;;;;;;;28.00;18.30;;;;;;;5.67;82.38;101197.85;105821;1266;60292;-95
2023/01/19 23:41:41;;;;;;;32.50;18.60;;;;;;;5.66;82.50;101196.16;107220;1261;74119;-93
2023/01/19 23:44:14;;;;;;;30.60;19.50;;;;;;;5.65;82.51;101197.73;107832;1261;63728;-88
2023/01/19 23:46:42;;;;;;;26.90;17.70;;;;;;;5.66;82.36;101199.11;107500;1262;71606;-92
2023/01/19 23:49:12;;;;;;;28.40;17.70;;;;;;;5.66;82.34;101197.35;106661;1263;62068;-92
2023/01/19 23:51:39;;;;;;;30.70;17.70;;;;;;;5.67;82.23;101201.17;106131;1267;61432;-91
2023/01/19 23:54:06;;;;;;;28.40;17.40;;;;;;;5.65;82.02;101197.21;106252;1262;74032;-92
2023/01/19 23:56:35;;;;;;;36.30;20.70;;;;;;;5.64;81.97;101197.45;107157;1262;63957;-92
2023/01/19 23:59:08;;;;;;;31.40;19.20;;;;;;;5.61;81.71;101200.98;106735;1259;72501;-90
